createdAt,value
2019-01-03T00:01:48.853Z,3.23
2019-01-03T00:04:37.522Z,3.25
2019-01-03T00:07:33.677Z,2.92
2019-01-03T00:10:24.749Z,3.15
2019-01-03T00:13:18.154Z,2.87
2019-01-03T00:16:21.282Z,2.85
2019-01-03T00:19:20.530Z,2.62
2019-01-03T00:22:08.582Z,2.77
2019-01-03T00:24:54.691Z,2.10
2019-01-03T00:27:42.901Z,2.35
2019-01-03T00:30:33.673Z,2.20
2019-01-03T00:33:22.364Z,2.17
2019-01-03T00:36:08.817Z,2.17
2019-01-03T00:39:02.156Z,1.70
2019-01-03T00:41:52.230Z,1.95
2019-01-03T00:44:35.098Z,2.22
2019-01-03T00:47:21.754Z,2.02
2019-01-03T00:50:07.971Z,2.40
2019-01-03T00:53:06.717Z,1.98
2019-01-03T00:55:54.473Z,2.17
2019-01-03T00:58:40.408Z,2.40
2019-01-03T01:01:31.720Z,1.50
2019-01-03T01:04:19.961Z,1.85
2019-01-03T01:07:09.915Z,1.57
2019-01-03T01:10:00.010Z,1.90
2019-01-03T01:12:45.790Z,2.17
2019-01-03T01:15:43.157Z,2.60
2019-01-03T01:18:36.206Z,1.67
2019-01-03T01:21:26.209Z,1.60
2019-01-03T01:24:16.693Z,3.67
2019-01-03T01:26:57.265Z,1.98
2019-01-03T01:29:44.092Z,3.05
2019-01-03T01:32:37.133Z,3.27
2019-01-03T01:35:18.692Z,3.02
2019-01-03T01:38:01.313Z,2.98
2019-01-03T01:40:58.033Z,3.40
2019-01-03T01:43:44.894Z,3.87
2019-01-03T01:46:30.322Z,3.47
2019-01-03T01:49:12.651Z,5.70
2019-01-03T01:52:06.354Z,4.20
2019-01-03T01:54:57.198Z,3.10
2019-01-03T01:57:43.309Z,4.60
2019-01-03T02:00:29.737Z,3.02
2019-01-03T02:03:29.266Z,3.47
2019-01-03T02:06:25.906Z,2.98
2019-01-03T02:09:12.030Z,3.52
2019-01-03T02:11:57.760Z,2.80
2019-01-03T02:14:45.084Z,3.50
2019-01-03T02:17:22.384Z,3.10
2019-01-03T02:20:07.188Z,3.90
2019-01-03T02:23:05.597Z,3.70
2019-01-03T02:26:05.255Z,3.77
2019-01-03T02:28:55.469Z,4.45
2019-01-03T02:31:39.696Z,3.50
2019-01-03T02:34:36.646Z,4.40
2019-01-03T02:37:23.492Z,3.35
2019-01-03T02:40:17.335Z,4.00
2019-01-03T02:43:17.847Z,2.98
2019-01-03T02:46:03.358Z,2.50
2019-01-03T02:48:45.346Z,3.15
2019-01-03T02:51:51.543Z,2.60
2019-01-03T02:54:43.218Z,2.35
2019-01-03T02:57:25.031Z,3.02
2019-01-03T03:00:11.609Z,2.87
2019-01-03T03:02:59.680Z,2.75
2019-01-03T03:05:46.803Z,2.45
2019-01-03T03:08:33.241Z,3.27
2019-01-03T03:11:29.600Z,3.17
2019-01-03T03:14:21.886Z,3.27
2019-01-03T03:17:27.996Z,2.58
2019-01-03T03:20:09.388Z,3.52
2019-01-03T03:22:59.215Z,2.22
2019-01-03T03:25:34.822Z,2.10
2019-01-03T03:28:14.612Z,2.93
2019-01-03T03:31:01.861Z,2.92
2019-01-03T03:33:47.931Z,3.08
2019-01-03T03:36:53.579Z,2.95
2019-01-03T03:39:39.390Z,2.60
2019-01-03T03:42:26.603Z,2.95
2019-01-03T03:45:12.595Z,2.22
2019-01-03T03:48:06.414Z,2.95
2019-01-03T03:50:53.600Z,2.37
2019-01-03T03:53:40.179Z,2.60
2019-01-03T03:56:38.895Z,2.77
2019-01-03T03:59:26.134Z,2.50
2019-01-03T04:02:16.580Z,2.05
2019-01-03T04:05:02.677Z,3.52
2019-01-03T04:07:46.847Z,4.10
2019-01-03T04:10:32.836Z,3.13
2019-01-03T04:13:29.785Z,2.83
2019-01-03T04:16:23.240Z,2.43
2019-01-03T04:19:09.657Z,3.40
2019-01-03T04:21:56.065Z,3.15
2019-01-03T04:24:42.556Z,3.47
2019-01-03T04:27:45.249Z,3.63
2019-01-03T04:30:43.935Z,4.00
2019-01-03T04:33:31.062Z,3.67
2019-01-03T04:36:17.527Z,3.40
2019-01-03T04:39:23.327Z,4.03
2019-01-03T04:42:10.843Z,3.83
2019-01-03T04:44:58.095Z,3.73
2019-01-03T04:47:43.948Z,5.60
2019-01-03T04:50:30.160Z,3.77
2019-01-03T04:53:16.637Z,3.67
2019-01-03T04:56:15.851Z,4.50
2019-01-03T04:58:59.411Z,5.28
2019-01-03T05:02:15.163Z,4.20
2019-01-03T05:05:08.356Z,3.77
2019-01-03T05:07:57.471Z,4.70
2019-01-03T05:10:43.923Z,3.90
2019-01-03T05:13:31.124Z,4.78
2019-01-03T05:16:17.211Z,4.35
2019-01-03T05:19:07.440Z,3.85
2019-01-03T05:21:53.921Z,4.33
2019-01-03T05:24:51.253Z,3.77
2019-01-03T05:27:47.560Z,3.47
2019-01-03T05:30:33.809Z,4.58
2019-01-03T05:33:19.777Z,2.72
2019-01-03T05:36:05.991Z,4.05
2019-01-03T05:38:52.712Z,4.08
2019-01-03T05:41:46.499Z,3.75
2019-01-03T05:44:43.751Z,3.58
2019-01-03T05:47:49.483Z,3.45
2019-01-03T05:50:37.139Z,3.00
2019-01-03T05:53:27.446Z,3.33
2019-01-03T05:56:49.325Z,4.10
2019-01-03T05:59:35.968Z,4.55
2019-01-03T06:02:22.872Z,5.45
2019-01-03T06:05:12.456Z,6.08
2019-01-03T06:08:00.029Z,5.45
2019-01-03T06:10:45.479Z,5.03
2019-01-03T06:13:35.588Z,5.92
2019-01-03T06:16:38.454Z,4.95
2019-01-03T06:19:29.346Z,4.90
2019-01-03T06:22:20.394Z,5.00
2019-01-03T06:25:06.255Z,4.95
2019-01-03T06:27:47.300Z,6.25
2019-01-03T06:30:35.172Z,5.80
2019-01-03T06:33:37.456Z,4.75
2019-01-03T06:36:36.139Z,9.13
2019-01-03T06:39:21.026Z,5.78
2019-01-03T06:42:11.246Z,6.45
2019-01-03T06:45:15.329Z,6.12
2019-01-03T06:48:11.035Z,7.37
2019-01-03T06:50:58.356Z,7.00
2019-01-03T06:53:43.515Z,7.60
2019-01-03T06:56:30.153Z,8.73
2019-01-03T06:59:23.414Z,7.05
2019-01-03T07:02:23.206Z,8.85
2019-01-03T07:05:21.603Z,8.23
2019-01-03T07:08:08.416Z,8.48
2019-01-03T07:10:48.722Z,8.27
2019-01-03T07:13:32.367Z,8.67
2019-01-03T07:16:18.412Z,9.17
2019-01-03T07:19:04.578Z,10.18
2019-01-03T07:21:50.258Z,9.60
2019-01-03T07:24:43.261Z,10.00
2019-01-03T07:27:29.220Z,10.90
2019-01-03T07:30:28.754Z,11.00
2019-01-03T07:33:33.790Z,9.48
2019-01-03T07:36:36.052Z,10.10
2019-01-03T07:39:43.944Z,10.25
2019-01-03T07:42:32.089Z,10.88
2019-01-03T07:45:29.276Z,11.85
2019-01-03T07:48:28.475Z,12.28
2019-01-03T07:51:22.142Z,14.80
2019-01-03T07:54:11.693Z,15.60
2019-01-03T07:56:56.351Z,17.20
2019-01-03T07:59:53.032Z,17.37
2019-01-03T08:02:40.754Z,18.80
2019-01-03T08:05:33.707Z,18.60
2019-01-03T08:08:21.696Z,19.02
2019-01-03T08:11:18.362Z,20.43
2019-01-03T08:14:08.787Z,18.90
2019-01-03T08:17:05.307Z,17.00
2019-01-03T08:20:08.201Z,19.55
2019-01-03T08:22:59.061Z,18.87
2019-01-03T08:25:45.334Z,19.67
2019-01-03T08:28:36.622Z,18.35
2019-01-03T08:31:27.029Z,19.47
2019-01-03T08:34:18.452Z,20.27
2019-01-03T08:37:08.860Z,18.93
2019-01-03T08:39:58.151Z,18.43
2019-01-03T08:42:49.831Z,18.30
2019-01-03T08:45:36.143Z,16.80
2019-01-03T08:48:21.861Z,18.57
2019-01-03T08:51:08.744Z,18.50
2019-01-03T08:54:11.020Z,18.80
2019-01-03T08:57:07.379Z,17.90
2019-01-03T08:59:52.916Z,18.13
2019-01-03T09:02:38.954Z,17.00
2019-01-03T09:05:37.944Z,18.40
2019-01-03T09:08:23.731Z,15.80
2019-01-03T09:11:09.723Z,15.63
2019-01-03T09:14:00.122Z,16.53
2019-01-03T09:16:46.535Z,16.67
2019-01-03T09:19:32.293Z,15.70
2019-01-03T09:22:19.252Z,17.33
2019-01-03T09:25:16.118Z,14.53
2019-01-03T09:28:02.256Z,14.93
2019-01-03T09:30:46.600Z,14.60
2019-01-03T09:33:33.429Z,15.10
2019-01-03T09:36:32.379Z,14.20
2019-01-03T09:39:19.222Z,15.67
2019-01-03T09:42:06.123Z,14.43
2019-01-03T09:44:46.274Z,14.20
2019-01-03T09:47:15.398Z,13.90
2019-01-03T09:49:43.987Z,16.00
2019-01-03T09:52:12.731Z,13.73
2019-01-03T09:54:41.172Z,14.20
2019-01-03T09:57:09.220Z,14.70
2019-01-03T09:59:37.098Z,14.70
2019-01-03T10:02:05.015Z,16.03
2019-01-03T10:04:33.355Z,14.33
2019-01-03T10:07:01.532Z,14.70
2019-01-03T10:09:29.680Z,21.47
2019-01-03T10:11:57.226Z,20.67
2019-01-03T10:14:26.004Z,20.57
2019-01-03T10:16:54.152Z,23.70
2019-01-03T10:19:22.004Z,21.80
2019-01-03T10:21:50.291Z,16.20
2019-01-03T10:24:18.142Z,13.23
2019-01-03T10:26:46.041Z,16.33
2019-01-03T10:29:14.457Z,15.13
2019-01-03T10:31:42.332Z,16.13
2019-01-03T10:34:10.172Z,15.63
2019-01-03T10:36:37.843Z,13.50
2019-01-03T10:39:06.485Z,13.57
2019-01-03T10:41:34.049Z,14.47
2019-01-03T10:44:01.892Z,13.50
2019-01-03T10:46:30.060Z,12.60
2019-01-03T10:48:57.979Z,15.93
2019-01-03T10:51:25.952Z,16.50
2019-01-03T10:53:54.182Z,12.87
2019-01-03T10:56:22.429Z,11.17
2019-01-03T10:58:51.642Z,11.50
2019-01-03T11:01:19.241Z,12.77
2019-01-03T11:03:47.535Z,11.67
2019-01-03T11:06:15.998Z,13.00
2019-01-03T11:08:43.994Z,13.10
2019-01-03T11:11:12.035Z,9.33
2019-01-03T11:13:40.143Z,9.67
2019-01-03T11:16:07.878Z,10.87
2019-01-03T11:18:36.046Z,9.40
2019-01-03T11:21:04.313Z,11.03
2019-01-03T11:23:32.671Z,10.10
2019-01-03T11:26:00.615Z,9.90
2019-01-03T11:28:28.876Z,8.80
2019-01-03T11:30:56.572Z,9.70
2019-01-03T11:33:24.834Z,8.60
2019-01-03T11:35:53.151Z,10.70
2019-01-03T11:38:21.450Z,9.60
2019-01-03T11:40:49.191Z,11.07
2019-01-03T11:43:17.171Z,10.23
2019-01-03T11:45:44.514Z,7.77
2019-01-03T11:48:12.825Z,10.23
2019-01-03T11:50:40.464Z,9.30
2019-01-03T11:53:08.347Z,7.83
2019-01-03T11:55:36.624Z,9.40
2019-01-03T11:58:04.488Z,9.80
2019-01-03T12:00:32.662Z,9.90
2019-01-03T12:03:00.646Z,7.67
2019-01-03T12:05:28.904Z,8.80
2019-01-03T12:07:57.254Z,8.13
2019-01-03T12:10:25.265Z,8.40
2019-01-03T12:12:53.499Z,9.20
2019-01-03T12:15:21.516Z,8.90
2019-01-03T12:17:49.787Z,8.80
2019-01-03T12:20:18.024Z,9.27
2019-01-03T12:22:45.671Z,9.43
2019-01-03T12:25:13.592Z,8.30
2019-01-03T12:27:41.448Z,9.40
2019-01-03T12:30:09.904Z,8.80
2019-01-03T12:32:37.478Z,9.07
2019-01-03T12:35:06.166Z,9.67
2019-01-03T12:37:34.898Z,7.97
2019-01-03T12:40:02.935Z,8.43
2019-01-03T12:42:31.561Z,11.97
2019-01-03T12:44:58.860Z,7.77
2019-01-03T12:47:26.747Z,8.83
2019-01-03T12:49:55.255Z,9.23
2019-01-03T12:52:23.742Z,7.80
2019-01-03T12:54:51.933Z,6.90
2019-01-03T12:57:19.784Z,8.30
2019-01-03T12:59:48.063Z,7.80
2019-01-03T13:02:16.075Z,8.73
2019-01-03T13:04:44.074Z,9.00
2019-01-03T13:07:12.603Z,8.40
2019-01-03T13:09:40.367Z,8.70
2019-01-03T13:12:08.192Z,8.17
2019-01-03T13:14:36.138Z,10.03
2019-01-03T13:17:04.079Z,9.33
2019-01-03T13:19:32.684Z,8.67
2019-01-03T13:22:01.054Z,8.87
2019-01-03T13:24:29.126Z,14.03
2019-01-03T13:26:56.601Z,9.57
2019-01-03T13:29:24.788Z,10.47
2019-01-03T13:31:52.657Z,11.77
2019-01-03T13:34:21.866Z,8.10
2019-01-03T13:36:50.110Z,8.90
2019-01-03T13:39:18.732Z,9.30
2019-01-03T13:41:48.183Z,8.60
2019-01-03T13:44:16.243Z,7.20
2019-01-03T13:46:44.662Z,6.97
2019-01-03T13:49:12.778Z,8.13
2019-01-03T13:52:13.654Z,8.10
2019-01-03T13:54:41.491Z,10.00
2019-01-03T13:57:09.159Z,16.43
2019-01-03T13:59:37.185Z,9.90
2019-01-03T14:02:05.307Z,9.60
2019-01-03T14:04:33.181Z,9.97
2019-01-03T14:07:02.579Z,7.73
2019-01-03T14:09:30.367Z,9.50
2019-01-03T14:11:57.780Z,12.63
2019-01-03T14:14:26.149Z,9.10
2019-01-03T14:16:54.737Z,11.37
2019-01-03T14:19:22.535Z,12.90
2019-01-03T14:21:50.702Z,10.87
2019-01-03T14:24:25.171Z,10.60
2019-01-03T14:26:52.809Z,10.00
2019-01-03T14:29:20.408Z,8.53
2019-01-03T14:31:48.482Z,8.90
2019-01-03T14:34:16.726Z,10.07
2019-01-03T14:36:48.193Z,9.20
2019-01-03T14:39:16.062Z,8.67
2019-01-03T14:41:47.028Z,10.07
2019-01-03T14:44:14.853Z,14.87
2019-01-03T14:46:42.235Z,7.93
2019-01-03T14:49:10.151Z,9.13
2019-01-03T14:51:38.452Z,10.77
2019-01-03T14:54:06.403Z,16.50
2019-01-03T14:56:34.502Z,10.07
2019-01-03T14:59:02.081Z,8.80
2019-01-03T15:01:30.114Z,8.13
2019-01-03T15:03:58.072Z,9.93
2019-01-03T15:06:26.307Z,10.57
2019-01-03T15:08:54.161Z,10.90
2019-01-03T15:11:21.790Z,8.93
2019-01-03T15:13:49.419Z,9.60
2019-01-03T15:16:17.051Z,9.03
2019-01-03T15:18:45.167Z,12.50
2019-01-03T15:21:12.813Z,8.37
2019-01-03T15:23:40.592Z,9.07
2019-01-03T15:26:08.212Z,8.43
2019-01-03T15:28:36.174Z,8.47
2019-01-03T15:31:04.245Z,8.50
2019-01-03T15:33:32.514Z,14.93
2019-01-03T15:35:59.970Z,9.47
2019-01-03T15:38:28.067Z,8.70
2019-01-03T15:40:56.250Z,10.63
2019-01-03T15:43:24.608Z,9.10
2019-01-03T15:45:52.948Z,9.10
2019-01-03T15:48:21.261Z,8.47
2019-01-03T15:50:49.013Z,10.50
2019-01-03T15:53:16.958Z,8.10
2019-01-03T15:55:44.947Z,8.10
2019-01-03T15:58:12.972Z,7.80
2019-01-03T16:00:40.925Z,9.20
2019-01-03T16:03:08.931Z,7.50
2019-01-03T16:05:36.453Z,8.07
2019-01-03T16:08:04.064Z,9.20
2019-01-03T16:10:31.998Z,13.90
2019-01-03T16:12:59.918Z,10.97
2019-01-03T16:15:27.859Z,9.97
2019-01-03T16:17:55.920Z,9.63
2019-01-03T16:20:23.738Z,7.43
2019-01-03T16:22:51.930Z,9.10
2019-01-03T16:25:19.884Z,9.47
2019-01-03T16:27:48.271Z,9.90
2019-01-03T16:30:16.490Z,9.10
2019-01-03T16:32:44.430Z,11.33
2019-01-03T16:35:12.140Z,8.50
2019-01-03T16:37:40.022Z,8.90
2019-01-03T16:40:09.388Z,8.67
2019-01-03T16:42:37.963Z,10.83
2019-01-03T16:45:05.231Z,11.27
2019-01-03T16:47:32.814Z,10.27
2019-01-03T16:50:00.486Z,10.43
2019-01-03T16:52:28.441Z,12.70
2019-01-03T16:54:57.775Z,11.20
2019-01-03T16:57:26.222Z,9.63
2019-01-03T16:59:54.257Z,10.33
2019-01-03T17:02:22.689Z,10.07
2019-01-03T17:04:50.662Z,11.07
2019-01-03T17:07:19.233Z,9.90
2019-01-03T17:09:46.824Z,10.77
2019-01-03T17:12:14.692Z,13.20
2019-01-03T17:14:42.119Z,16.70
2019-01-03T17:17:10.350Z,17.23
2019-01-03T17:19:38.746Z,13.10
2019-01-03T17:22:06.435Z,10.90
2019-01-03T17:24:34.664Z,12.90
2019-01-03T17:27:03.114Z,14.67
2019-01-03T17:29:30.395Z,20.37
2019-01-03T17:31:58.231Z,15.03
2019-01-03T17:34:25.912Z,16.60
2019-01-03T17:36:53.766Z,15.17
2019-01-03T17:39:21.437Z,17.17
2019-01-03T17:41:49.161Z,12.87
2019-01-03T17:44:17.467Z,10.47
2019-01-03T17:46:45.681Z,10.57
2019-01-03T17:49:14.052Z,8.33
2019-01-03T17:51:42.460Z,11.20
2019-01-03T17:54:13.726Z,10.30
2019-01-03T17:56:41.251Z,16.23
2019-01-03T17:59:09.521Z,17.67
2019-01-03T18:01:37.452Z,18.37
2019-01-03T18:04:05.493Z,14.03
2019-01-03T18:06:33.726Z,13.50
2019-01-03T18:09:02.022Z,11.10
2019-01-03T18:11:29.785Z,11.70
2019-01-03T18:13:57.656Z,10.93
2019-01-03T18:16:25.277Z,9.43
2019-01-03T18:18:53.098Z,9.13
2019-01-03T18:21:21.404Z,10.73
2019-01-03T18:23:49.250Z,10.60
2019-01-03T18:26:16.793Z,10.67
2019-01-03T18:28:44.823Z,12.13
2019-01-03T18:31:12.793Z,17.40
2019-01-03T18:33:40.693Z,15.80
2019-01-03T18:36:08.747Z,14.10
2019-01-03T18:38:37.001Z,16.07
2019-01-03T18:41:05.313Z,12.07
2019-01-03T18:43:33.191Z,13.20
2019-01-03T18:46:00.850Z,11.83
2019-01-03T18:48:28.584Z,11.60
2019-01-03T18:50:56.288Z,11.23
2019-01-03T18:53:24.191Z,11.20
2019-01-03T18:55:52.123Z,10.90
2019-01-03T18:58:20.191Z,10.70
2019-01-03T19:00:47.919Z,12.33
2019-01-03T19:03:16.242Z,10.77
2019-01-03T19:05:44.277Z,11.90
2019-01-03T19:08:12.380Z,11.33
2019-01-03T19:10:40.492Z,11.30
2019-01-03T19:13:08.692Z,12.73
2019-01-03T19:15:36.957Z,11.67
2019-01-03T19:18:05.238Z,11.90
2019-01-03T19:20:33.429Z,11.23
2019-01-03T19:23:01.487Z,10.83
2019-01-03T19:25:29.777Z,10.63
2019-01-03T19:27:57.096Z,11.50
2019-01-03T19:30:25.322Z,10.87
2019-01-03T19:32:53.540Z,12.30
2019-01-03T19:35:21.445Z,11.53
2019-01-03T19:37:49.114Z,10.60
2019-01-03T19:40:17.093Z,10.80
2019-01-03T19:42:46.366Z,10.77
2019-01-03T19:45:14.040Z,11.40
2019-01-03T19:47:42.313Z,10.37
2019-01-03T19:50:12.563Z,11.87
2019-01-03T19:52:40.523Z,12.20
2019-01-03T19:55:08.889Z,12.40
2019-01-03T19:57:37.248Z,14.30
2019-01-03T20:00:06.158Z,13.00
2019-01-03T20:02:34.086Z,15.90
2019-01-03T20:05:02.150Z,15.17
2019-01-03T20:07:30.152Z,13.47
2019-01-03T20:09:58.463Z,13.20
2019-01-03T20:12:26.210Z,14.07
2019-01-03T20:14:54.720Z,13.20
2019-01-03T20:17:22.515Z,14.73
2019-01-03T20:19:50.459Z,11.30
2019-01-03T20:22:18.701Z,12.00
2019-01-03T20:24:47.437Z,9.57
2019-01-03T20:27:15.448Z,11.63
2019-01-03T20:29:43.355Z,11.33
2019-01-03T20:32:11.389Z,11.27
2019-01-03T20:34:39.435Z,10.87
2019-01-03T20:37:08.107Z,12.37
2019-01-03T20:39:36.180Z,12.50
2019-01-03T20:42:03.777Z,12.20
2019-01-03T20:44:31.441Z,12.63
2019-01-03T20:46:58.677Z,10.60
2019-01-03T20:49:26.999Z,12.20
2019-01-03T20:51:54.872Z,11.53
2019-01-03T20:54:23.934Z,15.30
2019-01-03T20:56:53.409Z,12.83
2019-01-03T20:59:21.600Z,15.53
2019-01-03T21:01:49.687Z,12.77
2019-01-03T21:04:17.895Z,13.77
2019-01-03T21:06:45.537Z,17.97
2019-01-03T21:09:13.124Z,13.20
2019-01-03T21:11:41.514Z,14.43
2019-01-03T21:14:09.141Z,11.90
2019-01-03T21:16:37.380Z,11.47
2019-01-03T21:19:05.931Z,10.97
2019-01-03T21:21:34.833Z,10.20
2019-01-03T21:24:03.626Z,9.30
2019-01-03T21:26:31.991Z,9.60
2019-01-03T21:29:00.367Z,8.40
2019-01-03T21:31:29.054Z,7.63
2019-01-03T21:33:57.733Z,8.13
2019-01-03T21:36:25.964Z,9.23
2019-01-03T21:38:54.704Z,9.03
2019-01-03T21:41:22.687Z,10.27
2019-01-03T21:43:50.565Z,9.17
2019-01-03T21:46:18.594Z,11.63
2019-01-03T21:48:52.969Z,11.20
2019-01-03T21:51:16.810Z,9.50
2019-01-03T21:53:44.941Z,8.33
2019-01-03T21:56:12.875Z,7.57
2019-01-03T21:58:41.114Z,10.07
2019-01-03T22:01:09.502Z,6.97
2019-01-03T22:03:37.155Z,8.87
2019-01-03T22:06:05.126Z,7.10
2019-01-03T22:08:33.529Z,6.90
2019-01-03T22:11:01.179Z,7.40
2019-01-03T22:13:29.214Z,7.73
2019-01-03T22:15:56.633Z,7.50
2019-01-03T22:18:24.302Z,7.60
2019-01-03T22:20:52.754Z,7.60
2019-01-03T22:23:20.652Z,7.00
2019-01-03T22:25:48.619Z,6.93
2019-01-03T22:28:16.718Z,7.63
2019-01-03T22:30:45.288Z,7.90
2019-01-03T22:33:13.305Z,6.60
2019-01-03T22:35:40.912Z,8.17
2019-01-03T22:38:09.119Z,6.80
2019-01-03T22:40:37.247Z,6.43
2019-01-03T22:43:05.510Z,7.60
2019-01-03T22:45:33.496Z,8.70
2019-01-03T22:48:01.144Z,8.93
2019-01-03T22:50:28.898Z,7.73
2019-01-03T22:52:56.694Z,7.10
2019-01-03T22:55:25.244Z,7.73
2019-01-03T22:57:53.890Z,6.10
2019-01-03T23:00:37.097Z,7.10
2019-01-03T23:03:05.147Z,6.80
2019-01-03T23:05:32.907Z,6.67
2019-01-03T23:08:01.019Z,6.40
2019-01-03T23:10:29.214Z,6.87
2019-01-03T23:12:57.635Z,5.73
2019-01-03T23:15:26.183Z,7.40
2019-01-03T23:17:54.305Z,5.97
2019-01-03T23:20:22.754Z,6.10
2019-01-03T23:22:50.371Z,5.43
2019-01-03T23:25:18.604Z,5.47
2019-01-03T23:27:47.426Z,6.53
2019-01-03T23:30:15.988Z,5.60
2019-01-03T23:32:44.476Z,5.70
2019-01-03T23:35:13.135Z,5.43
2019-01-03T23:37:41.672Z,6.07
2019-01-03T23:40:10.499Z,5.90
2019-01-03T23:42:40.309Z,7.60
2019-01-03T23:45:16.121Z,9.53
2019-01-03T23:47:45.399Z,7.23
2019-01-03T23:50:17.317Z,8.58
2019-01-03T23:52:46.739Z,10.23
2019-01-03T23:55:14.804Z,8.67
2019-01-03T23:57:43.010Z,8.10
